Avenal, CA

7:16 AM PDT on October 01, 2014 (GMT -0700)
KCACOALI4 | Change Station
CLOSE
Current Station
Personal Weather Station
Location: Coalinga, CA
Elevation: 682 ft
Nearby Weather Stations

Elev 682 ft 36.15 °N, 120.37 °W | Updated 3 seconds ago

Clear
Clear
58.4 °F
Feels Like 58.4 °F
N
0.0
Wind Variable Wind from NNE
Gusts 1.6 mph

Today
High -- | Low -- °F
--% Chance of Precip.
Yesterday
High -- | Low -- °F
Precip. -- in
6:55 AM 6:44 PM
Waxing Crescent, 48% visible
Pressure 29.87 in
Visibility 10.0 miles
Clouds Clear
Dew Point 48 °F
Humidity 69%
Rainfall 0.00 in
Snow Depth 0 in , 0 in , 0 in
UV 0 out of 12
Pollen 5.40 out of 12
Air Quality Not available.
Flu Activity Not available.
SPECI KNLC 011410Z 34011KT 10SM CLR 16/06 A2987 RMK AO2 T01560056

More Conditions Fewer Conditions

Pressure 29.87 in
Visibility 10.0 miles
Clouds Clear
Dew Point 48 °F
Humidity 69%
Rainfall 0.00 in
Snow Depth 0 in , 0 in , 0 in
UV 0 out of 12
Pollen 5.40 out of 12
Air Quality Not available.
Flu Activity Not available.
SPECI KNLC 011410Z 34011KT 10SM CLR 16/06 A2987 RMK AO2 T01560056

More Conditions Fewer Conditions

10-Day Weather Forecast

Almanac

Astronomy

Oct. 01, 2014 Rise Set
Actual Time 6:55 AM PDT 6:44 PM PDT
Civil Twilight 6:30 AM PDT 7:09 PM PDT
Nautical Twilight 6:00 AM PDT 7:39 PM PDT
Astronomical Twilight 5:30 AM PDT 8:09 PM PDT
Moon 1:53 PM PDT No Moon Set
Length of Visible Light 12h 39m
Length of Day
11h 48m
Tomorrow will be 2m 16s shorter.
Waxing Crescent, 48% of the Moon is Illuminated
Today
Waxing Crescent
Oct 1
First Quarter
Oct 8
Full
Oct 15
Last Quarter
Oct 23
New

Today's Extremes

State Highs State Lows

Community

WunderPhotos

Upload Photos

1,757,952 photos uploaded!

Nearby

Air Quality

  Air Quality AQ Index Pollutant
Yesterday Moderate
PM10
Yesterday Moderate
OZONE
Wednesday Moderate
PM10
Thursday Moderate
PM10
Friday Unhealthy for Sensitive Groups
PM10
Saturday Unhealthy for Sensitive Groups
PM10
Sunday Moderate
PM10

Snow Depth

Station Depth Elevation
Independence Creek 0 in 6500 ft
Tahoe City Cross 0 in 6750 ft
Fallen Leaf 0 in 6300 ft
Truckee #2 0 in 6400 ft
CSS Lab 5 in 6900 ft

Earthquake Activity

City Distance Mag. Time & Date
Shandon, California 19 miles 2.9 5:34 PM PDT
2014-09-30
East Foothills, California 136 miles 2.6 3:34 PM PDT
2014-09-30
South Dos Palos, California 58 miles 2.7 3:08 PM PDT
2014-09-30
South Dos Palos, California 58 miles 2.5 9:18 PM PDT
2014-09-29
Minimum magnitude displayed is 2.5.

Coastal Water Temperatures

Place Temperature
No Stations Reporting

Nearby Weather Stations